createdAt,value
2022-11-27T00:00:27.386Z,0.00
2022-11-27T00:01:27.347Z,0.00
2022-11-27T00:02:27.387Z,0.00
2022-11-27T00:03:27.463Z,0.00
2022-11-27T00:04:27.397Z,0.00
2022-11-27T00:05:27.313Z,0.00
2022-11-27T00:06:27.314Z,0.00
2022-11-27T00:07:27.338Z,0.00
2022-11-27T00:08:27.295Z,0.00
2022-11-27T00:09:27.291Z,0.00
2022-11-27T00:10:27.312Z,0.00
2022-11-27T00:11:27.340Z,0.00
2022-11-27T00:12:27.286Z,0.00
2022-11-27T00:13:27.303Z,0.00
2022-11-27T00:14:27.265Z,0.00
2022-11-27T00:15:27.310Z,0.00
2022-11-27T00:16:28.395Z,0.00
2022-11-27T00:17:27.250Z,0.00
2022-11-27T00:18:27.230Z,0.00
2022-11-27T00:19:27.220Z,0.00
2022-11-27T00:20:29.722Z,0.00
2022-11-27T00:21:28.232Z,0.00
2022-11-27T00:22:27.203Z,0.00
2022-11-27T00:23:27.225Z,0.00
2022-11-27T00:24:27.227Z,0.00
2022-11-27T00:25:27.204Z,0.00
2022-11-27T00:26:27.240Z,0.00
2022-11-27T00:27:27.215Z,0.00
2022-11-27T00:28:27.169Z,0.00
2022-11-27T00:29:27.154Z,0.00
2022-11-27T00:30:27.177Z,0.00
2022-11-27T00:31:27.275Z,0.00
2022-11-27T00:32:27.279Z,0.00
2022-11-27T00:33:27.162Z,0.00
2022-11-27T00:34:27.160Z,0.00
2022-11-27T00:35:27.131Z,0.00
2022-11-27T00:36:27.105Z,0.00
2022-11-27T00:37:27.170Z,0.00
2022-11-27T00:38:27.130Z,0.00
2022-11-27T00:39:27.106Z,0.00
2022-11-27T00:40:27.110Z,0.00
2022-11-27T00:41:27.119Z,0.00
2022-11-27T00:42:27.075Z,0.00
2022-11-27T00:43:27.180Z,0.00
2022-11-27T00:44:27.086Z,0.00
2022-11-27T00:45:27.092Z,0.00
2022-11-27T00:46:29.022Z,0.00
2022-11-27T00:47:28.072Z,0.00
2022-11-27T00:48:27.021Z,0.00
2022-11-27T00:49:27.046Z,0.00
2022-11-27T00:50:27.034Z,0.00
2022-11-27T00:51:27.026Z,0.00
2022-11-27T00:52:26.993Z,0.00
2022-11-27T00:53:27.004Z,0.00
2022-11-27T00:54:27.036Z,0.00
2022-11-27T00:55:26.998Z,0.00
2022-11-27T00:56:27.026Z,0.00
2022-11-27T00:57:26.990Z,0.00
2022-11-27T00:58:26.979Z,0.00
2022-11-27T00:59:27.096Z,0.00
2022-11-27T01:00:26.980Z,0.00
2022-11-27T01:01:26.974Z,0.00
2022-11-27T01:02:26.991Z,0.00
2022-11-27T01:03:26.926Z,0.00
2022-11-27T01:04:26.923Z,0.00
2022-11-27T01:05:26.946Z,0.00
2022-11-27T01:06:26.906Z,0.00
2022-11-27T01:07:26.978Z,0.00
2022-11-27T01:08:26.920Z,0.00
2022-11-27T01:09:26.899Z,0.00
2022-11-27T01:10:26.941Z,0.00
2022-11-27T01:11:26.904Z,0.00
2022-11-27T01:12:26.873Z,0.00
2022-11-27T01:13:26.909Z,0.00
2022-11-27T01:14:26.849Z,0.00
2022-11-27T01:15:26.859Z,0.00
2022-11-27T01:16:26.933Z,0.00
2022-11-27T01:17:26.839Z,0.00
2022-11-27T01:18:26.826Z,0.00
2022-11-27T01:19:26.839Z,0.00
2022-11-27T01:20:26.793Z,0.00
2022-11-27T01:21:26.925Z,0.00
2022-11-27T01:22:26.819Z,0.00
2022-11-27T01:23:26.804Z,0.00
2022-11-27T01:24:26.795Z,0.00
2022-11-27T01:25:27.270Z,0.00
2022-11-27T01:26:27.850Z,0.00
2022-11-27T01:27:26.783Z,0.00
2022-11-27T01:28:26.787Z,0.00
2022-11-27T01:29:26.786Z,0.00
2022-11-27T01:30:26.746Z,0.00
2022-11-27T01:31:26.816Z,0.00
2022-11-27T01:32:26.778Z,0.00
2022-11-27T01:33:26.740Z,0.00
2022-11-27T01:34:26.756Z,0.00
2022-11-27T01:35:26.710Z,0.00
2022-11-27T01:36:26.711Z,0.00
2022-11-27T01:37:26.761Z,0.00
2022-11-27T01:38:26.726Z,0.00
2022-11-27T01:39:26.702Z,0.00
2022-11-27T01:40:26.683Z,0.00
2022-11-27T01:41:26.677Z,0.00
2022-11-27T01:42:26.650Z,0.00
2022-11-27T01:43:26.703Z,0.00
2022-11-27T01:44:26.664Z,0.00
2022-11-27T01:45:26.699Z,0.00
2022-11-27T01:46:26.714Z,0.00
2022-11-27T01:47:26.656Z,0.00
2022-11-27T01:48:26.656Z,0.00
2022-11-27T01:49:26.607Z,0.00
2022-11-27T01:50:26.612Z,0.00
2022-11-27T01:51:26.649Z,0.00
2022-11-27T01:52:26.612Z,0.00
2022-11-27T01:53:26.632Z,0.00
2022-11-27T01:54:26.666Z,0.00
2022-11-27T01:55:26.623Z,0.00
2022-11-27T01:56:26.607Z,0.00
2022-11-27T01:57:26.611Z,0.00
2022-11-27T01:58:26.578Z,0.00
2022-11-27T01:59:26.641Z,0.00
2022-11-27T02:00:26.556Z,0.00
2022-11-27T02:01:26.621Z,0.00
2022-11-27T02:02:26.613Z,0.00
2022-11-27T02:03:26.616Z,0.00
2022-11-27T02:04:26.559Z,0.00
2022-11-27T02:05:26.569Z,0.00
2022-11-27T02:06:26.516Z,0.00
2022-11-27T02:07:26.627Z,0.00
2022-11-27T02:08:26.513Z,0.00
2022-11-27T02:09:26.542Z,0.00
2022-11-27T02:10:26.523Z,0.00
2022-11-27T02:11:26.528Z,0.00
2022-11-27T02:12:26.498Z,0.00
2022-11-27T02:13:26.500Z,0.00
2022-11-27T02:14:26.483Z,0.00
2022-11-27T02:15:26.457Z,0.00
2022-11-27T02:16:26.594Z,0.00
2022-11-27T02:17:26.436Z,0.00
2022-11-27T02:18:26.459Z,0.00
2022-11-27T02:19:26.423Z,0.00
2022-11-27T02:20:26.469Z,0.00
2022-11-27T02:21:26.475Z,0.00
2022-11-27T02:22:26.429Z,0.00
2022-11-27T02:23:26.461Z,0.00
2022-11-27T02:24:26.452Z,0.00
2022-11-27T02:25:28.440Z,0.00
2022-11-27T02:26:26.416Z,0.00
2022-11-27T02:27:26.515Z,0.00
2022-11-27T02:28:26.422Z,0.00
2022-11-27T02:29:26.427Z,0.00
2022-11-27T02:30:26.408Z,0.00
2022-11-27T02:31:26.440Z,0.00
2022-11-27T02:32:26.437Z,0.00
2022-11-27T02:33:26.372Z,0.00
2022-11-27T02:34:26.365Z,0.00
2022-11-27T02:35:26.365Z,0.00
2022-11-27T02:36:26.367Z,0.00
2022-11-27T02:37:26.390Z,0.00
2022-11-27T02:38:26.469Z,0.00
2022-11-27T02:39:26.371Z,0.00
2022-11-27T02:40:26.335Z,0.00
2022-11-27T02:41:26.326Z,0.00
2022-11-27T02:42:26.401Z,0.00
2022-11-27T02:43:26.391Z,0.00
2022-11-27T02:44:26.326Z,0.00
2022-11-27T02:45:26.309Z,0.00
2022-11-27T02:46:26.384Z,0.00
2022-11-27T02:47:26.296Z,0.00
2022-11-27T02:48:26.296Z,0.00
2022-11-27T02:49:26.435Z,0.00
2022-11-27T02:50:26.337Z,0.00
2022-11-27T02:51:26.293Z,0.00
2022-11-27T02:52:26.238Z,0.00
2022-11-27T02:53:26.269Z,0.00
2022-11-27T02:54:26.272Z,0.00
2022-11-27T02:55:26.295Z,0.00
2022-11-27T02:56:26.281Z,0.00
2022-11-27T02:57:26.254Z,0.00
2022-11-27T02:58:26.331Z,0.00
2022-11-27T02:59:26.251Z,0.00
2022-11-27T03:00:26.366Z,0.00
2022-11-27T03:01:26.248Z,0.00
2022-11-27T03:02:26.249Z,0.00
2022-11-27T03:03:26.219Z,0.00
2022-11-27T03:04:26.239Z,0.00
2022-11-27T03:05:26.250Z,0.00
2022-11-27T03:06:26.253Z,0.00
2022-11-27T03:07:26.222Z,0.00
2022-11-27T03:08:26.206Z,0.00
2022-11-27T03:09:26.219Z,0.00
2022-11-27T03:10:26.212Z,0.00
2022-11-27T03:11:26.223Z,0.00
2022-11-27T03:12:26.185Z,0.00
2022-11-27T03:13:26.205Z,0.00
2022-11-27T03:14:26.264Z,0.00
2022-11-27T03:15:26.156Z,0.00
2022-11-27T03:16:26.327Z,0.00
2022-11-27T03:17:26.162Z,0.00
2022-11-27T03:18:26.174Z,0.00
2022-11-27T03:19:26.116Z,0.00
2022-11-27T03:20:26.119Z,0.00
2022-11-27T03:21:26.135Z,0.00
2022-11-27T03:22:26.158Z,0.00
2022-11-27T03:23:26.120Z,0.00
2022-11-27T03:24:26.103Z,0.00
2022-11-27T03:25:26.122Z,0.00
2022-11-27T03:26:26.148Z,0.00
2022-11-27T03:27:26.154Z,0.00
2022-11-27T03:28:26.126Z,0.00
2022-11-27T03:29:26.107Z,0.00
2022-11-27T03:30:26.159Z,0.00
2022-11-27T03:31:26.130Z,0.00
2022-11-27T03:32:26.045Z,0.00
2022-11-27T03:33:26.189Z,0.00
2022-11-27T03:34:26.082Z,0.00
2022-11-27T03:35:26.104Z,0.00
2022-11-27T03:36:26.061Z,0.00
2022-11-27T03:37:26.089Z,0.00
2022-11-27T03:38:26.245Z,0.00
2022-11-27T03:39:26.030Z,0.00
2022-11-27T03:40:26.052Z,0.00
2022-11-27T03:41:26.051Z,0.00
2022-11-27T03:42:26.024Z,0.00
2022-11-27T03:43:26.025Z,0.00
2022-11-27T03:44:26.025Z,0.00
2022-11-27T03:45:26.025Z,0.00
2022-11-27T03:46:26.152Z,0.00
2022-11-27T03:47:26.088Z,0.00
2022-11-27T03:48:26.015Z,0.00
2022-11-27T03:49:26.021Z,0.00
2022-11-27T03:50:25.979Z,0.00
2022-11-27T03:51:26.015Z,0.00
2022-11-27T03:52:25.982Z,0.00
2022-11-27T03:53:25.943Z,0.00
2022-11-27T03:54:25.944Z,0.00
2022-11-27T03:55:26.084Z,0.00
2022-11-27T03:56:25.938Z,0.00
2022-11-27T03:57:25.950Z,0.00
2022-11-27T03:58:25.982Z,0.00
2022-11-27T03:59:25.930Z,0.00
2022-11-27T04:00:25.998Z,0.00
2022-11-27T04:01:25.948Z,0.00
2022-11-27T04:02:25.985Z,0.00
2022-11-27T04:03:26.011Z,0.00
2022-11-27T04:04:25.907Z,0.00
2022-11-27T04:05:25.937Z,0.00
2022-11-27T04:06:25.933Z,0.00
2022-11-27T04:07:25.917Z,0.00
2022-11-27T04:08:25.890Z,0.00
2022-11-27T04:09:25.876Z,0.00
2022-11-27T04:10:25.866Z,0.00
2022-11-27T04:11:25.907Z,0.00
2022-11-27T04:12:25.895Z,0.00
2022-11-27T04:13:25.859Z,0.00
2022-11-27T04:14:25.864Z,0.00
2022-11-27T04:15:25.854Z,0.00
2022-11-27T04:16:25.938Z,0.00
2022-11-27T04:17:25.827Z,0.00
2022-11-27T04:18:25.898Z,0.00
2022-11-27T04:19:25.816Z,0.00
2022-11-27T04:20:25.836Z,0.00
2022-11-27T04:21:25.832Z,0.00
2022-11-27T04:22:25.822Z,0.00
2022-11-27T04:23:25.768Z,0.00
2022-11-27T04:24:25.793Z,0.00
2022-11-27T04:25:25.773Z,0.00
2022-11-27T04:26:25.817Z,0.00
2022-11-27T04:27:25.763Z,0.00
2022-11-27T04:28:25.797Z,0.00
2022-11-27T04:29:25.776Z,0.00
2022-11-27T04:30:25.746Z,0.00
2022-11-27T04:31:25.796Z,0.00
2022-11-27T04:32:25.740Z,0.00
2022-11-27T04:33:25.790Z,0.00
2022-11-27T04:34:25.804Z,0.00
2022-11-27T04:35:25.737Z,0.00
2022-11-27T04:36:25.704Z,0.00
2022-11-27T04:37:25.725Z,0.00
2022-11-27T04:38:25.732Z,0.00
2022-11-27T04:39:25.762Z,0.00
2022-11-27T04:40:25.680Z,0.00
2022-11-27T04:41:26.719Z,0.00
2022-11-27T04:42:25.693Z,0.00
2022-11-27T04:43:25.698Z,0.00
2022-11-27T04:44:25.728Z,0.00
2022-11-27T04:45:25.682Z,0.00
2022-11-27T04:46:25.711Z,0.00
2022-11-27T04:47:25.667Z,0.00
2022-11-27T04:48:25.635Z,0.00
2022-11-27T04:49:25.638Z,0.00
2022-11-27T04:50:25.747Z,0.00
2022-11-27T04:51:25.673Z,0.00
2022-11-27T04:52:25.633Z,0.00
2022-11-27T04:53:25.651Z,0.00
2022-11-27T04:54:25.647Z,0.00
2022-11-27T04:55:25.629Z,0.00
2022-11-27T04:56:25.592Z,0.00
2022-11-27T04:57:25.589Z,0.00
2022-11-27T04:58:25.573Z,0.00
2022-11-27T04:59:58.363Z,0.00
2022-11-27T05:00:25.657Z,0.00
2022-11-27T05:01:25.670Z,0.00
2022-11-27T05:02:25.635Z,0.00
2022-11-27T05:03:25.595Z,0.00
2022-11-27T05:04:25.567Z,0.00
2022-11-27T05:05:25.586Z,0.00
2022-11-27T05:06:25.708Z,0.00
2022-11-27T05:07:26.620Z,0.00
2022-11-27T05:08:25.539Z,0.00
2022-11-27T05:09:25.524Z,0.00
2022-11-27T05:10:25.515Z,0.00
2022-11-27T05:11:25.520Z,0.00
2022-11-27T05:12:26.642Z,0.00
2022-11-27T05:13:25.565Z,0.00
2022-11-27T05:14:25.511Z,0.00
2022-11-27T05:15:25.539Z,0.00
2022-11-27T05:16:25.541Z,0.00
2022-11-27T05:17:25.502Z,0.00
2022-11-27T05:18:25.608Z,0.00
2022-11-27T05:19:25.486Z,0.00
2022-11-27T05:20:25.495Z,0.00
2022-11-27T05:21:25.495Z,0.00
2022-11-27T05:22:25.553Z,0.00
2022-11-27T05:23:25.483Z,0.00
2022-11-27T05:24:25.473Z,0.00
2022-11-27T05:25:25.456Z,0.00
2022-11-27T05:26:25.453Z,0.00
2022-11-27T05:27:25.423Z,0.00
2022-11-27T05:28:27.072Z,0.00
2022-11-27T05:29:26.593Z,0.00
2022-11-27T05:30:25.406Z,0.00
2022-11-27T05:31:25.502Z,0.00
2022-11-27T05:32:25.397Z,0.00
2022-11-27T05:33:25.431Z,0.00
2022-11-27T05:34:25.366Z,0.00
2022-11-27T05:35:25.423Z,0.00
2022-11-27T05:36:25.375Z,0.00
2022-11-27T05:37:25.377Z,0.00
2022-11-27T05:38:25.456Z,0.00
2022-11-27T05:39:25.366Z,0.00
2022-11-27T05:40:25.406Z,0.00
2022-11-27T05:41:25.357Z,0.00
2022-11-27T05:42:25.360Z,0.00
2022-11-27T05:43:25.348Z,0.00
2022-11-27T05:44:25.343Z,0.00
2022-11-27T05:45:25.309Z,0.00
2022-11-27T05:46:25.425Z,0.00
2022-11-27T05:47:25.324Z,0.00
2022-11-27T05:48:25.346Z,0.00
2022-11-27T05:49:25.336Z,0.00
2022-11-27T05:50:25.286Z,0.00
2022-11-27T05:51:25.360Z,0.00
2022-11-27T05:52:25.294Z,0.00
2022-11-27T05:53:25.297Z,0.00
2022-11-27T05:54:25.361Z,0.00
2022-11-27T05:55:25.259Z,0.00
2022-11-27T05:56:25.289Z,0.00
2022-11-27T05:57:25.267Z,0.00
2022-11-27T05:58:25.259Z,0.00
2022-11-27T05:59:25.263Z,0.00
2022-11-27T06:00:25.240Z,0.00
2022-11-27T06:01:25.239Z,0.00
2022-11-27T06:02:29.377Z,0.00
2022-11-27T06:03:26.321Z,0.00
2022-11-27T06:04:26.211Z,0.00
2022-11-27T06:05:25.212Z,0.00
2022-11-27T06:06:25.215Z,0.00
2022-11-27T06:07:25.268Z,0.00
2022-11-27T06:08:25.345Z,0.00
2022-11-27T06:09:25.196Z,0.00
2022-11-27T06:10:25.275Z,0.00
2022-11-27T06:11:25.159Z,0.00
2022-11-27T06:12:25.166Z,0.00
2022-11-27T06:13:25.324Z,0.00
2022-11-27T06:14:25.158Z,0.00
2022-11-27T06:15:25.159Z,0.00
2022-11-27T06:16:25.179Z,0.00
2022-11-27T06:17:25.173Z,0.00
2022-11-27T06:18:25.144Z,0.00
2022-11-27T06:19:25.143Z,0.00
2022-11-27T06:20:25.129Z,0.00
2022-11-27T06:21:25.108Z,0.00
2022-11-27T06:22:25.107Z,0.00
2022-11-27T06:23:25.140Z,0.00
2022-11-27T06:24:25.199Z,0.00
2022-11-27T06:25:25.090Z,0.00
2022-11-27T06:26:25.179Z,0.00
2022-11-27T06:27:25.122Z,0.00
2022-11-27T06:28:25.111Z,0.00
2022-11-27T06:29:25.098Z,0.00
2022-11-27T06:30:25.119Z,0.00
2022-11-27T06:31:25.175Z,0.00
2022-11-27T06:32:25.077Z,0.00
2022-11-27T06:33:25.045Z,0.00
2022-11-27T06:34:25.027Z,0.00
2022-11-27T06:35:25.072Z,0.00
2022-11-27T06:36:25.072Z,0.00
2022-11-27T06:37:25.049Z,0.00
2022-11-27T06:38:25.013Z,0.00
2022-11-27T06:39:25.017Z,0.00
2022-11-27T06:40:25.027Z,0.00
2022-11-27T06:41:25.126Z,0.00
2022-11-27T06:42:25.085Z,5.62
2022-11-27T06:43:24.976Z,0.00
2022-11-27T06:44:25.004Z,0.00
2022-11-27T06:45:25.019Z,0.00
2022-11-27T06:46:25.032Z,0.00
2022-11-27T06:47:24.970Z,0.00
2022-11-27T06:48:24.975Z,0.00
2022-11-27T06:49:24.997Z,0.00
2022-11-27T06:50:25.022Z,0.00
2022-11-27T06:51:24.992Z,5.62
2022-11-27T06:52:25.033Z,5.62
2022-11-27T06:53:24.985Z,5.62
2022-11-27T06:54:24.949Z,5.62
2022-11-27T06:55:24.953Z,0.00
2022-11-27T06:56:24.944Z,5.62
2022-11-27T06:57:24.990Z,5.62
2022-11-27T06:58:30.734Z,5.62
2022-11-27T06:59:26.906Z,5.62
2022-11-27T07:00:24.915Z,5.62
2022-11-27T07:01:25.950Z,5.62
2022-11-27T07:02:24.933Z,5.62
2022-11-27T07:03:24.978Z,11.25
2022-11-27T07:04:24.923Z,11.25
2022-11-27T07:05:24.858Z,11.25
2022-11-27T07:06:24.910Z,16.88
2022-11-27T07:07:24.941Z,16.88
2022-11-27T07:08:24.879Z,16.88
2022-11-27T07:09:24.879Z,16.88
2022-11-27T07:10:24.896Z,16.88
2022-11-27T07:11:24.904Z,22.50
2022-11-27T07:12:24.858Z,22.50
2022-11-27T07:13:24.841Z,28.12
2022-11-27T07:14:24.980Z,33.75
2022-11-27T07:15:24.847Z,33.75
2022-11-27T07:16:24.938Z,28.12
2022-11-27T07:17:24.849Z,28.12
2022-11-27T07:18:24.815Z,28.12
2022-11-27T07:19:24.872Z,33.75
2022-11-27T07:20:24.903Z,33.75
2022-11-27T07:21:24.817Z,33.75
2022-11-27T07:22:24.827Z,33.75
2022-11-27T07:23:24.847Z,33.75
2022-11-27T07:24:24.760Z,33.75
2022-11-27T07:25:24.816Z,33.75
2022-11-27T07:26:25.354Z,39.38
2022-11-27T07:27:24.747Z,39.38
2022-11-27T07:28:24.808Z,45.00
2022-11-27T07:29:24.753Z,50.62
2022-11-27T07:30:25.000Z,45.00
2022-11-27T07:31:24.862Z,45.00
2022-11-27T07:32:24.797Z,56.25
2022-11-27T07:33:24.756Z,61.88
2022-11-27T07:34:24.812Z,61.88
2022-11-27T07:35:24.699Z,61.88
2022-11-27T07:36:24.879Z,67.50
2022-11-27T07:37:24.702Z,61.88
2022-11-27T07:38:24.670Z,61.88
2022-11-27T07:39:46.227Z,61.88
2022-11-27T07:40:24.746Z,61.88
2022-11-27T07:41:29.192Z,61.88
2022-11-27T07:42:40.904Z,61.88
2022-11-27T07:43:26.708Z,61.88
2022-11-27T07:44:24.697Z,61.88
2022-11-27T07:45:24.750Z,61.88
2022-11-27T07:46:24.732Z,67.50
2022-11-27T07:47:25.709Z,73.12
2022-11-27T07:48:24.664Z,78.75
2022-11-27T07:49:24.639Z,78.75
2022-11-27T07:50:24.621Z,78.75
2022-11-27T07:51:24.641Z,78.75
2022-11-27T07:52:24.678Z,84.38
2022-11-27T07:53:24.612Z,95.62
2022-11-27T07:54:24.624Z,101.25
2022-11-27T07:55:24.652Z,118.12
2022-11-27T07:56:24.604Z,123.75
2022-11-27T07:57:24.641Z,129.38
2022-11-27T07:58:24.617Z,135.00
2022-11-27T07:59:24.635Z,140.62
2022-11-27T08:00:24.588Z,151.88
2022-11-27T08:01:24.636Z,151.88
2022-11-27T08:02:24.715Z,146.25
2022-11-27T08:03:24.590Z,157.50
2022-11-27T08:04:24.621Z,157.50
2022-11-27T08:05:24.649Z,140.62
2022-11-27T08:06:24.591Z,129.38
2022-11-27T08:07:24.690Z,106.88
2022-11-27T08:08:24.591Z,106.88
2022-11-27T08:09:24.554Z,106.88
2022-11-27T08:10:24.550Z,95.62
2022-11-27T08:11:24.535Z,106.88
2022-11-27T08:12:24.575Z,106.88
2022-11-27T08:13:24.540Z,101.25
2022-11-27T08:14:24.552Z,101.25
2022-11-27T08:15:24.516Z,118.12
2022-11-27T08:16:24.568Z,135.00
2022-11-27T08:17:25.374Z,129.38
2022-11-27T08:18:24.621Z,123.75
2022-11-27T08:19:24.540Z,106.88
2022-11-27T08:20:24.501Z,90.00
2022-11-27T08:21:25.372Z,106.88
2022-11-27T08:22:24.512Z,118.12
2022-11-27T08:23:24.497Z,112.50
2022-11-27T08:24:24.481Z,106.88
2022-11-27T08:25:24.452Z,135.00
2022-11-27T08:26:24.492Z,168.75
2022-11-27T08:27:24.499Z,146.25
2022-11-27T08:28:24.442Z,140.62
2022-11-27T08:29:24.477Z,185.62
2022-11-27T08:30:24.457Z,208.12
2022-11-27T08:31:24.509Z,185.62
2022-11-27T08:32:24.475Z,151.88
2022-11-27T08:33:24.453Z,146.25
2022-11-27T08:34:24.503Z,174.38
2022-11-27T08:35:24.426Z,191.25
2022-11-27T08:36:24.412Z,225.00
2022-11-27T08:37:24.444Z,253.12
2022-11-27T08:38:24.403Z,241.88
2022-11-27T08:39:24.425Z,286.88
2022-11-27T08:40:24.446Z,360.00
2022-11-27T08:41:24.430Z,326.25
2022-11-27T08:42:24.420Z,315.00
2022-11-27T08:43:24.399Z,438.75
2022-11-27T08:44:24.427Z,444.38
2022-11-27T08:45:24.358Z,315.00
2022-11-27T08:46:24.332Z,253.12
2022-11-27T08:47:24.371Z,219.38
2022-11-27T08:48:24.375Z,208.12
2022-11-27T08:49:24.329Z,208.12
2022-11-27T08:50:24.473Z,303.75
2022-11-27T08:51:24.292Z,495.00
2022-11-27T08:52:24.347Z,455.62
2022-11-27T08:53:24.340Z,416.25
2022-11-27T08:54:24.323Z,461.25
2022-11-27T08:55:24.305Z,421.88
2022-11-27T08:56:24.336Z,382.50
2022-11-27T08:57:24.297Z,489.38
2022-11-27T08:58:24.279Z,725.62
2022-11-27T08:59:24.252Z,405.00
2022-11-27T09:00:27.865Z,495.00
2022-11-27T09:01:24.293Z,590.62
2022-11-27T09:02:24.249Z,635.62
2022-11-27T09:03:24.309Z,843.75
2022-11-27T09:04:24.325Z,1175.62
2022-11-27T09:05:24.217Z,1293.75
2022-11-27T09:06:24.296Z,1456.88
2022-11-27T09:07:24.374Z,1282.50
2022-11-27T09:08:24.259Z,1248.75
2022-11-27T09:09:24.211Z,708.75
2022-11-27T09:10:24.319Z,511.88
2022-11-27T09:11:24.190Z,545.62
2022-11-27T09:12:24.225Z,607.50
2022-11-27T09:13:24.197Z,523.12
2022-11-27T09:14:24.194Z,540.00
2022-11-27T09:15:24.216Z,393.75
2022-11-27T09:16:24.215Z,725.62
2022-11-27T09:17:24.157Z,416.25
2022-11-27T09:18:24.297Z,405.00
2022-11-27T09:19:24.154Z,416.25
2022-11-27T09:20:24.171Z,376.88
2022-11-27T09:21:24.140Z,399.38
2022-11-27T09:22:24.219Z,489.38
2022-11-27T09:23:24.151Z,708.75
2022-11-27T09:24:24.103Z,759.38
2022-11-27T09:25:24.076Z,866.25
2022-11-27T09:26:24.138Z,781.88
2022-11-27T09:27:24.120Z,753.75
2022-11-27T09:28:28.177Z,855.00
2022-11-27T09:29:24.092Z,680.62
2022-11-27T09:30:24.100Z,624.38
2022-11-27T09:31:24.148Z,517.50
2022-11-27T09:32:24.161Z,691.88
2022-11-27T09:33:24.035Z,916.88
2022-11-27T09:34:24.065Z,1119.38
2022-11-27T09:35:24.177Z,1395.00
2022-11-27T09:36:24.074Z,1636.88
2022-11-27T09:37:24.039Z,1856.25
2022-11-27T09:38:24.108Z,2463.75
2022-11-27T09:39:23.985Z,2289.38
2022-11-27T09:40:24.044Z,2385.00
2022-11-27T09:41:24.008Z,2154.38
2022-11-27T09:42:23.998Z,2671.88
2022-11-27T09:43:24.002Z,2728.12
2022-11-27T09:44:23.990Z,2688.75
2022-11-27T09:45:24.071Z,2441.25
2022-11-27T09:46:24.013Z,2115.00
2022-11-27T09:47:23.963Z,1755.00
2022-11-27T09:48:23.906Z,1996.88
2022-11-27T09:49:23.957Z,2818.12
2022-11-27T09:50:23.942Z,2030.62
2022-11-27T09:51:24.076Z,2379.38
2022-11-27T09:52:23.892Z,2227.50
2022-11-27T09:53:23.947Z,2193.75
2022-11-27T09:54:24.023Z,2677.50
2022-11-27T09:55:23.913Z,2958.75
2022-11-27T09:56:23.938Z,2986.88
2022-11-27T09:57:23.887Z,2418.75
2022-11-27T09:58:23.887Z,1479.38
2022-11-27T09:59:23.907Z,1091.25
2022-11-27T10:00:23.909Z,1445.62
2022-11-27T10:01:28.588Z,1760.62
2022-11-27T10:02:24.037Z,2103.75
2022-11-27T10:03:23.962Z,2103.75
2022-11-27T10:04:23.849Z,1648.12
2022-11-27T10:05:23.883Z,1586.25
2022-11-27T10:06:23.822Z,1760.62
2022-11-27T10:07:23.921Z,1541.25
2022-11-27T10:08:23.851Z,1350.00
2022-11-27T10:09:23.795Z,1186.88
2022-11-27T10:10:23.912Z,1428.75
2022-11-27T10:11:23.783Z,2272.50
2022-11-27T10:12:23.800Z,2525.62
2022-11-27T10:13:23.777Z,2323.12
2022-11-27T10:14:23.805Z,1653.75
2022-11-27T10:15:23.805Z,1350.00
2022-11-27T10:16:23.829Z,1063.12
2022-11-27T10:17:23.748Z,950.62
2022-11-27T10:18:23.879Z,832.50
2022-11-27T10:19:23.767Z,815.62
2022-11-27T10:20:23.757Z,911.25
2022-11-27T10:21:23.764Z,905.62
2022-11-27T10:22:23.724Z,973.12
2022-11-27T10:23:23.739Z,793.12
2022-11-27T10:24:23.770Z,748.12
2022-11-27T10:25:23.695Z,759.38
2022-11-27T10:26:23.790Z,849.38
2022-11-27T10:27:23.725Z,781.88
2022-11-27T10:28:23.725Z,618.75
2022-11-27T10:29:23.772Z,534.38
2022-11-27T10:30:23.658Z,466.88
2022-11-27T10:31:23.749Z,421.88
2022-11-27T10:32:53.443Z,388.12
2022-11-27T10:33:25.646Z,365.62
2022-11-27T10:34:23.673Z,348.75
2022-11-27T10:35:23.717Z,331.88
2022-11-27T10:36:23.655Z,315.00
2022-11-27T10:37:23.652Z,309.38
2022-11-27T10:38:23.610Z,298.12
2022-11-27T10:39:23.577Z,286.88
2022-11-27T10:40:23.730Z,281.25
2022-11-27T10:42:24.700Z,275.62
2022-11-27T10:43:23.614Z,270.00
2022-11-27T10:44:23.557Z,264.38
2022-11-27T10:45:23.601Z,258.75
2022-11-27T10:46:23.607Z,253.12
2022-11-27T10:47:23.559Z,253.12
2022-11-27T10:48:23.564Z,258.75
2022-11-27T10:49:23.544Z,264.38
2022-11-27T10:50:23.533Z,281.25
2022-11-27T10:51:23.656Z,309.38
2022-11-27T10:52:23.531Z,371.25
2022-11-27T10:53:23.540Z,472.50
2022-11-27T10:54:23.556Z,725.62
2022-11-27T10:55:23.498Z,877.50
2022-11-27T10:56:23.508Z,815.62
2022-11-27T10:57:23.652Z,720.00
2022-11-27T10:58:23.556Z,652.50
2022-11-27T10:59:23.480Z,894.38
2022-11-27T11:00:57.504Z,1434.38
2022-11-27T11:01:23.567Z,1485.00
2022-11-27T11:02:23.627Z,1327.50
2022-11-27T11:03:23.465Z,826.88
2022-11-27T11:04:39.328Z,725.62
2022-11-27T11:06:25.621Z,911.25
2022-11-27T11:07:23.527Z,967.50
2022-11-27T11:08:23.443Z,1141.88
2022-11-27T11:09:23.420Z,1113.75
2022-11-27T11:10:23.445Z,1378.12
2022-11-27T11:11:23.384Z,1192.50
2022-11-27T11:12:23.403Z,1051.88
2022-11-27T11:13:23.443Z,1068.75
2022-11-27T11:14:23.492Z,1198.12
2022-11-27T11:15:23.396Z,753.75
2022-11-27T11:16:24.510Z,691.88
2022-11-27T11:17:24.485Z,787.50
2022-11-27T11:18:23.377Z,826.88
2022-11-27T11:19:23.476Z,770.62
2022-11-27T11:20:23.370Z,731.25
2022-11-27T11:21:23.384Z,720.00
2022-11-27T11:22:23.368Z,635.62
2022-11-27T11:23:23.368Z,613.12
2022-11-27T11:24:23.344Z,641.25
2022-11-27T11:25:23.354Z,613.12
2022-11-27T11:26:23.306Z,714.38
2022-11-27T11:27:23.337Z,905.62
2022-11-27T11:28:23.319Z,1091.25
2022-11-27T11:29:23.271Z,1102.50
2022-11-27T11:30:23.496Z,1507.50
2022-11-27T11:31:23.392Z,1209.38
2022-11-27T11:32:23.304Z,1597.50
2022-11-27T11:33:23.265Z,1406.25
2022-11-27T11:34:23.289Z,1378.12
2022-11-27T11:35:23.291Z,990.00
2022-11-27T11:36:23.277Z,871.88
2022-11-27T11:37:23.243Z,900.00
2022-11-27T11:38:23.250Z,990.00
2022-11-27T11:39:23.262Z,1029.38
2022-11-27T11:40:23.259Z,888.75
2022-11-27T11:41:23.357Z,905.62
2022-11-27T11:42:23.196Z,776.25
2022-11-27T11:43:23.256Z,843.75
2022-11-27T11:44:23.212Z,720.00
2022-11-27T11:45:23.181Z,630.00
2022-11-27T11:46:23.391Z,534.38
2022-11-27T11:47:23.215Z,495.00
2022-11-27T11:48:23.155Z,433.12
2022-11-27T11:49:23.201Z,388.12
2022-11-27T11:50:23.181Z,360.00
2022-11-27T11:51:29.042Z,331.88
2022-11-27T11:52:25.257Z,303.75
2022-11-27T11:53:23.164Z,292.50
2022-11-27T11:54:23.150Z,275.62
2022-11-27T11:55:23.154Z,270.00
2022-11-27T11:56:23.106Z,264.38
2022-11-27T11:57:23.140Z,253.12
2022-11-27T11:58:23.152Z,241.88
2022-11-27T11:59:23.135Z,236.25
2022-11-27T12:00:29.601Z,236.25
2022-11-27T12:01:27.750Z,241.88
2022-11-27T12:02:24.209Z,241.88
2022-11-27T12:03:23.227Z,241.88
2022-11-27T12:04:23.145Z,247.50
2022-11-27T12:05:23.092Z,247.50
2022-11-27T12:06:23.103Z,247.50
2022-11-27T12:07:23.087Z,247.50
2022-11-27T12:08:23.073Z,241.88
2022-11-27T12:09:23.119Z,236.25
2022-11-27T12:10:23.094Z,230.62
2022-11-27T12:11:23.069Z,225.00
2022-11-27T12:12:23.048Z,219.38
2022-11-27T12:13:23.069Z,213.75
2022-11-27T12:14:23.051Z,208.12
2022-11-27T12:15:23.018Z,208.12
2022-11-27T12:16:23.055Z,202.50
2022-11-27T12:17:23.039Z,202.50
2022-11-27T12:18:23.060Z,196.88
2022-11-27T12:19:23.012Z,196.88
2022-11-27T12:20:22.975Z,196.88
2022-11-27T12:21:22.988Z,191.25
2022-11-27T12:22:23.024Z,191.25
2022-11-27T12:23:22.968Z,191.25
2022-11-27T12:24:22.931Z,191.25
2022-11-27T12:25:22.975Z,185.62
2022-11-27T12:26:22.934Z,185.62
2022-11-27T12:27:22.975Z,180.00
2022-11-27T12:28:22.963Z,174.38
2022-11-27T12:29:22.935Z,168.75
2022-11-27T12:30:22.928Z,168.75
2022-11-27T12:31:23.001Z,163.12
2022-11-27T12:32:22.910Z,163.12
2022-11-27T12:33:22.897Z,157.50
2022-11-27T12:34:23.000Z,151.88
2022-11-27T12:35:22.899Z,146.25
2022-11-27T12:36:22.879Z,146.25
2022-11-27T12:37:22.867Z,140.62
2022-11-27T12:38:22.864Z,135.00
2022-11-27T12:39:22.891Z,135.00
2022-11-27T12:40:22.872Z,129.38
2022-11-27T12:41:22.828Z,123.75
2022-11-27T12:42:22.959Z,123.75
2022-11-27T12:43:22.848Z,118.12
2022-11-27T12:44:22.804Z,112.50
2022-11-27T12:45:22.996Z,106.88
2022-11-27T12:46:22.900Z,106.88
2022-11-27T12:47:22.846Z,101.25
2022-11-27T12:48:22.823Z,101.25
2022-11-27T12:49:22.828Z,101.25
2022-11-27T12:50:22.896Z,101.25
2022-11-27T12:51:22.798Z,101.25
2022-11-27T12:52:22.806Z,101.25
2022-11-27T12:53:24.954Z,101.25
2022-11-27T12:54:23.780Z,106.88
2022-11-27T12:55:22.775Z,112.50
2022-11-27T12:56:22.751Z,112.50